.
WxDataArchive / Data Records for 2010-11-19
2010-11-18 November 2010 2010-11-20

Data Records for Friday, 19 November 2010

Time	Temp	Chill	HIndex	Humid	Dewpt	 Wind 	HiWind	WindDir	Rain 	Barom 
-----	----	-----	------	-----	-----	------	------	-------	-----	----- 
00:00	30.7	30.7	30.7	84	26.4	0	0	---	0.00	30.328 
00:05	30.9	30.9	30.9	84	26.6	0	0	---	0.00	30.328 
00:10	30.9	30.9	30.9	84	26.6	0	0	---	0.00	30.328 
00:15	30.7	30.7	30.7	83	26.2	0	0	---	0.00	30.324 
00:20	30.4	30.4	30.4	83	25.9	0	0	---	0.00	30.324 
00:25	30.3	30.3	30.3	83	25.8	0	0	---	0.00	30.324 
00:30	30.0	30.0	30.0	83	25.5	0	0	---	0.00	30.318 
00:35	29.5	29.5	29.5	83	25.0	0	0	---	0.00	30.318 
00:40	29.4	29.4	29.4	84	25.2	0	0	---	0.00	30.318 
00:45	29.1	29.1	29.1	84	24.9	0	0	---	0.00	30.312 
00:50	28.8	28.8	28.8	84	24.6	0	0	---	0.00	30.312 
00:55	28.5	28.5	28.5	84	24.3	0	0	---	0.00	30.312 
01:00	28.4	28.4	28.4	84	24.2	0	0	---	0.00	30.304 
01:05	28.1	28.1	28.1	84	23.9	0	0	---	0.00	30.304 
01:10	27.9	27.9	27.9	85	24.0	0	0	---	0.00	30.304 
01:15	27.8	27.8	27.8	85	23.9	0	0	---	0.00	30.302 
01:20	27.6	27.6	27.6	85	23.7	0	0	---	0.00	30.302 
01:25	27.5	27.5	27.5	85	23.6	0	0	---	0.00	30.302 
01:30	27.5	27.5	27.5	86	23.9	0	0	---	0.00	30.313 
01:35	27.3	27.3	27.3	86	23.7	0	0	---	0.00	30.313 
01:40	27.2	27.2	27.2	86	23.6	0	0	---	0.00	30.313 
01:45	27.0	27.0	27.0	86	23.4	0	0	---	0.00	30.310 
01:50	26.9	26.9	26.9	87	23.6	0	0	---	0.00	30.310 
01:55	26.6	26.6	26.6	87	23.3	0	0	---	0.00	30.310 
02:00	26.4	26.4	26.4	87	23.1	0	0	---	0.00	30.306 
02:05	26.3	26.3	26.3	87	23.0	0	0	---	0.00	30.306 
02:10	26.3	26.3	26.3	88	23.2	0	0	---	0.00	30.306 
02:15	26.1	26.1	26.1	88	23.0	0	0	---	0.00	30.302 
02:20	26.1	26.1	26.1	88	23.0	0	0	---	0.00	30.302 
02:25	26.0	26.0	26.0	88	22.9	0	0	---	0.00	30.302 
02:30	25.8	25.8	25.8	88	22.7	0	0	---	0.00	30.302 
02:35	25.7	25.7	25.7	88	22.6	0	0	---	0.00	30.302 
02:40	25.6	25.6	25.6	88	22.5	0	0	---	0.00	30.302 
02:45	25.6	25.6	25.6	88	22.5	0	0	---	0.00	30.300 
02:50	25.4	25.4	25.4	88	22.4	0	0	---	0.00	30.300 
02:55	25.4	25.4	25.4	88	22.4	0	0	---	0.00	30.300 
03:00	25.4	25.4	25.4	89	22.6	0	0	---	0.00	30.305 
03:05	25.4	25.4	25.4	89	22.6	0	0	---	0.00	30.305 
03:10	25.4	25.4	25.4	89	22.6	0	0	---	0.00	30.305 
03:15	25.6	25.6	25.6	89	22.8	0	0	---	0.00	30.316 
03:20	25.4	25.4	25.4	89	22.6	0	0	---	0.00	30.316 
03:25	25.4	25.4	25.4	89	22.6	0	0	---	0.00	30.316 
03:30	25.3	25.3	25.3	89	22.5	0	0	---	0.00	30.313 
03:35	25.1	25.1	25.1	89	22.3	0	0	---	0.00	30.313 
03:40	25.0	25.0	25.0	89	22.2	0	0	---	0.00	30.313 
03:45	24.8	24.8	24.8	89	22.0	0	0	---	0.00	30.303 
03:50	24.7	24.7	24.7	89	21.9	0	0	---	0.00	30.303 
03:55	24.7	24.7	24.7	89	21.9	0	0	---	0.00	30.303 
04:00	24.5	24.5	24.5	89	21.7	0	0	---	0.00	30.302 
04:05	24.4	24.4	24.4	89	21.6	0	0	---	0.00	30.302 
04:10	24.4	24.4	24.4	90	21.9	0	0	---	0.00	30.302 
04:15	24.4	24.4	24.4	90	21.9	0	0	---	0.00	30.307 
04:20	24.2	24.2	24.2	90	21.7	0	0	---	0.00	30.307 
04:25	24.1	24.1	24.1	90	21.6	0	0	---	0.00	30.307 
04:30	24.1	24.1	24.1	90	21.6	0	0	---	0.00	30.303 
04:35	24.1	24.1	24.1	90	21.6	0	0	---	0.00	30.303 
04:40	24.1	24.1	24.1	90	21.6	0	0	---	0.00	30.303 
04:45	24.1	24.1	24.1	90	21.6	0	0	---	0.00	30.291 
04:50	24.2	24.2	24.2	90	21.7	0	0	---	0.00	30.291 
04:55	24.2	24.2	24.2	90	21.7	0	0	---	0.00	30.291 
05:00	24.4	24.4	24.4	91	22.2	0	0	---	0.00	30.290 
05:05	24.5	24.5	24.5	91	22.3	0	0	---	0.00	30.290 
05:10	24.4	24.4	24.4	91	22.2	0	0	---	0.00	30.290 
05:15	24.4	24.4	24.4	91	22.2	0	0	---	0.00	30.291 
05:20	24.4	24.4	24.4	91	22.2	0	0	---	0.00	30.291 
05:25	24.4	24.4	24.4	91	22.2	0	0	---	0.00	30.291 
05:30	24.4	24.4	24.4	91	22.2	0	0	---	0.00	30.292 
05:35	24.4	24.4	24.4	91	22.2	0	0	---	0.00	30.292 
05:40	24.4	24.4	24.4	91	22.2	0	0	---	0.00	30.292 
05:45	24.4	24.4	24.4	91	22.2	0	0	---	0.00	30.305 
05:50	24.4	24.4	24.4	91	22.2	0	0	---	0.00	30.305 
05:55	24.2	24.2	24.2	91	22.0	0	0	---	0.00	30.305 
06:00	24.2	24.2	24.2	91	22.0	0	0	---	0.00	30.308 
06:05	24.1	24.1	24.1	91	21.9	0	0	---	0.00	30.308 
06:10	23.9	23.9	23.9	91	21.7	0	0	---	0.00	30.308 
06:15	23.9	23.9	23.9	91	21.7	0	0	---	0.00	30.300 
06:20	23.8	23.8	23.8	91	21.6	0	0	---	0.00	30.300 
06:25	23.6	23.6	23.6	91	21.4	0	0	---	0.00	30.300 
06:30	23.6	23.6	23.6	91	21.4	0	0	---	0.00	30.299 
06:35	23.5	23.5	23.5	91	21.3	0	0	---	0.00	30.299 
06:40	23.3	23.3	23.3	91	21.1	0	0	---	0.00	30.299 
06:45	23.2	23.2	23.2	91	21.0	0	0	---	0.00	30.298 
06:50	23.2	23.2	23.2	91	21.0	0	0	---	0.00	30.298 
06:55	23.2	23.2	23.2	91	21.0	0	0	---	0.00	30.298 
07:00	23.2	23.2	23.2	91	21.0	0	0	---	0.00	30.311 
07:05	23.2	23.2	23.2	91	21.0	0	0	---	0.00	30.311 
07:10	23.2	23.2	23.2	91	21.0	0	0	---	0.00	30.311 
07:15	23.0	23.0	23.0	91	20.8	0	0	---	0.00	30.313 
07:20	22.9	22.9	22.9	91	20.7	0	0	---	0.00	30.313 
07:25	22.9	22.9	22.9	91	20.7	0	0	---	0.00	30.313 
07:30	22.9	22.9	22.9	91	20.7	0	0	---	0.00	30.312 
07:35	22.9	22.9	22.9	91	20.7	0	0	---	0.00	30.312 
07:40	22.9	22.9	22.9	91	20.7	0	0	---	0.00	30.312 
07:45	22.9	22.9	22.9	92	20.9	0	0	---	0.00	30.303 
07:50	23.3	23.3	23.3	92	21.3	0	0	---	0.00	30.303 
07:55	23.6	23.6	23.6	92	21.6	0	0	---	0.00	30.303 
08:00	23.8	23.8	23.8	92	21.8	0	0	---	0.00	30.308 
08:05	23.9	23.9	23.9	92	21.9	0	0	---	0.00	30.308 
08:10	24.1	24.1	24.1	92	22.1	0	0	---	0.00	30.308 
08:15	24.5	24.5	24.5	92	22.5	0	0	---	0.00	30.303 
08:20	25.1	25.1	25.1	93	23.4	0	0	---	0.00	30.303 
08:25	25.8	25.8	25.8	93	24.1	0	0	---	0.00	30.303 
08:30	26.4	26.4	26.4	93	24.7	0	0	---	0.00	30.300 
08:35	27.0	27.0	27.0	93	25.3	0	0	---	0.00	30.300 
08:40	27.5	27.5	27.5	93	25.7	0	0	---	0.00	30.300 
08:45	27.9	27.9	27.9	93	26.1	0	0	---	0.00	30.293 
08:50	28.4	28.4	28.4	93	26.6	0	0	---	0.00	30.293 
08:55	29.1	29.1	29.1	93	27.3	0	1	0	0.00	30.293 
09:00	29.5	29.5	29.5	93	27.7	0	0	---	0.00	30.295 
09:05	29.8	29.8	29.8	93	28.0	0	1	0	0.00	30.295 
09:10	30.4	30.4	30.4	93	28.6	0	0	---	0.00	30.295 
09:15	31.0	31.0	31.0	93	29.2	0	0	---	0.00	30.306 
09:20	31.9	31.9	31.9	93	30.1	0	2	270	0.00	30.306 
09:25	32.9	32.9	32.9	93	31.1	0	1	270	0.00	30.306 
09:30	33.7	33.7	33.7	91	31.4	0	1	270	0.00	30.292 
09:35	34.3	34.3	34.3	89	31.4	0	3	270	0.00	30.292 
09:40	34.7	34.7	34.7	88	31.5	0	1	270	0.00	30.292 
09:45	35.0	35.0	35.0	85	31.0	1	4	270	0.00	30.289 
09:50	35.6	35.6	35.6	83	31.0	0	3	112	0.00	30.289 
09:55	36.0	36.0	36.0	82	31.0	1	3	202	0.00	30.289 
10:00	36.5	36.5	36.5	79	30.6	1	5	90	0.00	30.280 
10:05	36.9	36.9	36.9	78	30.7	1	6	68	0.00	30.280 
10:10	37.3	37.3	37.3	77	30.8	0	6	225	0.00	30.280 
10:15	37.6	37.6	37.6	77	31.1	1	4	248	0.00	30.273 
10:20	37.9	37.9	37.9	77	31.3	1	4	90	0.00	30.273 
10:25	38.2	38.2	38.2	76	31.3	1	5	90	0.00	30.273 
10:30	38.5	38.5	38.5	75	31.3	1	4	90	0.00	30.258 
10:35	38.8	38.8	38.8	75	31.6	1	4	90	0.00	30.258 
10:40	39.1	39.1	39.1	75	31.9	2	6	315	0.00	30.258 
10:45	39.2	39.2	39.2	74	31.6	2	5	68	0.00	30.256 
10:50	39.5	39.5	39.5	73	31.6	1	5	112	0.00	30.256 
10:55	39.9	39.9	39.9	72	31.6	2	7	112	0.00	30.256 
11:00	40.1	40.1	40.1	70	31.1	2	7	248	0.00	30.251 
11:05	40.2	40.2	40.2	69	30.9	3	9	225	0.00	30.251 
11:10	40.5	40.5	40.5	70	31.5	2	6	270	0.00	30.251 
11:15	40.8	40.8	40.8	67	30.7	3	12	248	0.00	30.260 
11:20	40.8	40.8	40.8	67	30.7	3	7	248	0.00	30.260 
11:25	40.9	38.4	40.9	66	30.4	4	10	270	0.00	30.260 
11:30	40.9	40.9	40.9	66	30.4	3	7	248	0.00	30.256 
11:35	40.9	40.9	40.9	66	30.4	3	11	248	0.00	30.256 
11:40	40.8	40.8	40.8	67	30.7	2	6	225	0.00	30.256 
11:45	40.5	37.9	40.5	66	30.0	4	7	248	0.00	30.248 
11:50	40.5	40.5	40.5	66	30.0	3	10	248	0.00	30.248 
11:55	40.3	40.3	40.3	67	30.2	3	7	248	0.00	30.248 
12:00	40.2	37.5	40.2	67	30.1	4	12	248	0.00	30.243 
12:05	40.2	40.2	40.2	67	30.1	3	9	248	0.00	30.243 
12:10	39.9	37.2	39.9	67	29.8	4	11	248	0.00	30.243 
12:15	39.8	39.8	39.8	68	30.1	3	8	248	0.00	30.239 
12:20	39.8	39.8	39.8	68	30.1	2	6	248	0.00	30.239 
12:25	39.9	39.9	39.9	67	29.8	2	9	225	0.00	30.239 
12:30	39.6	36.0	39.6	67	29.6	5	12	248	0.00	30.225 
12:35	39.5	36.7	39.5	67	29.5	4	12	248	0.00	30.225 
12:40	39.6	39.6	39.6	68	29.9	3	9	248	0.00	30.225 
12:45	39.6	36.9	39.6	67	29.6	4	9	270	0.00	30.212 
12:50	39.8	37.1	39.8	67	29.8	4	13	248	0.00	30.212 
12:55	39.8	37.1	39.8	68	30.1	4	11	248	0.00	30.212 
13:00	39.9	37.2	39.9	68	30.2	4	7	225	0.00	30.201 
13:05	39.9	37.2	39.9	68	30.2	4	9	248	0.00	30.201 
13:10	40.1	40.1	40.1	68	30.4	3	8	248	0.00	30.201 
13:15	40.3	40.3	40.3	68	30.6	3	10	270	0.00	30.193 
13:20	40.5	37.1	40.5	67	30.4	5	13	270	0.00	30.193 
13:25	40.6	38.0	40.6	68	30.9	4	11	248	0.00	30.193 
13:30	40.8	38.2	40.8	68	31.1	4	11	248	0.00	30.180 
13:35	40.9	40.9	40.9	68	31.2	3	10	248	0.00	30.180 
13:40	41.1	41.1	41.1	68	31.4	3	10	225	0.00	30.180 
13:45	40.9	36.8	40.9	67	30.8	6	13	248	0.00	30.174 
13:50	41.1	41.1	41.1	68	31.4	3	7	248	0.00	30.174 
13:55	41.2	38.7	41.2	68	31.5	4	13	270	0.00	30.174 
14:00	41.5	38.2	41.5	67	31.4	5	13	248	0.00	30.158 
14:05	41.5	39.1	41.5	68	31.7	4	13	248	0.00	30.158 
14:10	41.6	39.2	41.6	68	31.8	4	11	248	0.00	30.158 
14:15	41.8	41.8	41.8	68	32.0	3	10	248	0.00	30.147 
14:20	41.9	41.9	41.9	68	32.1	3	8	248	0.00	30.147 
14:25	42.2	42.2	42.2	68	32.4	3	10	248	0.00	30.147 
14:30	42.3	40.0	42.3	67	32.1	4	11	248	0.00	30.134 
14:35	42.6	42.6	42.6	67	32.4	3	10	248	0.00	30.134 
14:40	42.8	40.6	42.8	66	32.2	4	13	248	0.00	30.134 
14:45	42.9	42.9	42.9	66	32.3	2	6	248	0.00	30.126 
14:50	43.1	43.1	43.1	67	32.9	2	5	248	0.00	30.126 
14:55	42.9	42.9	42.9	66	32.3	3	11	225	0.00	30.126 
15:00	42.6	39.5	42.6	67	32.4	5	14	248	0.00	30.129 
15:05	42.5	40.2	42.5	68	32.7	4	10	248	0.00	30.129 
15:10	42.3	42.3	42.3	68	32.5	3	10	248	0.00	30.129 
15:15	42.3	42.3	42.3	68	32.5	3	10	248	0.00	30.130 
15:20	42.2	39.9	42.2	69	32.8	4	7	248	0.00	30.130 
15:25	42.2	42.2	42.2	69	32.8	3	9	248	0.00	30.130 
15:30	42.2	39.1	42.2	69	32.8	5	12	248	0.00	30.125 
15:35	42.2	42.2	42.2	70	33.1	3	12	248	0.00	30.125 
15:40	42.3	42.3	42.3	70	33.2	3	10	248	0.00	30.125 
15:45	42.3	42.3	42.3	70	33.2	2	6	248	0.00	30.111 
15:50	42.5	42.5	42.5	71	33.8	2	5	225	0.00	30.111 
15:55	42.5	42.5	42.5	71	33.8	3	7	248	0.00	30.111 
16:00	42.5	42.5	42.5	72	34.1	1	4	248	0.00	30.098 
16:05	42.6	42.6	42.6	72	34.2	2	5	248	0.00	30.098 
16:10	42.6	40.3	42.6	71	33.9	4	11	248	0.00	30.098 
16:15	42.6	42.6	42.6	71	33.9	3	16	270	0.00	30.101 
16:20	42.6	42.6	42.6	71	33.9	3	6	225	0.00	30.101 
16:25	42.6	40.3	42.6	71	33.9	4	11	248	0.00	30.101 
16:30	42.6	42.6	42.6	72	34.2	3	11	248	0.00	30.099 
16:35	42.6	42.6	42.6	72	34.2	3	9	248	0.00	30.099 
16:40	42.5	42.5	42.5	72	34.1	3	6	248	0.00	30.099 
16:45	42.5	42.5	42.5	73	34.5	3	8	248	0.00	30.099 
16:50	42.3	42.3	42.3	73	34.3	3	8	248	0.00	30.099 
16:55	42.3	42.3	42.3	73	34.3	2	11	248	0.00	30.099 
17:00	42.2	42.2	42.2	74	34.5	2	9	248	0.00	30.090 
17:05	42.2	42.2	42.2	74	34.5	1	4	248	0.00	30.090 
17:10	42.1	42.1	42.1	74	34.4	2	8	248	0.00	30.090 
17:15	41.9	41.9	41.9	75	34.6	1	5	248	0.00	30.090 
17:20	41.9	41.9	41.9	75	34.6	2	6	225	0.00	30.090 
17:25	41.9	41.9	41.9	76	34.9	1	5	248	0.00	30.090 
17:30	41.9	41.9	41.9	76	34.9	1	3	248	0.00	30.098 
17:35	41.9	41.9	41.9	76	34.9	1	4	248	0.00	30.098 
17:40	41.8	41.8	41.8	76	34.8	1	3	248	0.00	30.098 
17:45	41.8	41.8	41.8	76	34.8	1	6	248	0.00	30.093 
17:50	41.8	41.8	41.8	77	35.1	1	6	225	0.00	30.093 
17:55	41.8	41.8	41.8	77	35.1	2	5	248	0.00	30.093 
18:00	41.6	41.6	41.6	77	34.9	1	4	225	0.00	30.092 
18:05	41.5	41.5	41.5	77	34.8	1	4	270	0.00	30.092 
18:10	41.3	41.3	41.3	78	35.0	1	4	248	0.00	30.092 
18:15	41.3	41.3	41.3	78	35.0	1	5	248	0.00	30.097 
18:20	41.2	41.2	41.2	78	34.9	1	5	225	0.00	30.097 
18:25	41.2	41.2	41.2	78	34.9	1	4	248	0.00	30.097 
18:30	41.1	41.1	41.1	79	35.1	1	4	225	0.00	30.094 
18:35	41.1	41.1	41.1	79	35.1	1	5	225	0.00	30.094 
18:40	41.1	41.1	41.1	79	35.1	1	5	248	0.00	30.094 
18:45	40.9	40.9	40.9	80	35.2	0	2	248	0.00	30.095 
18:50	40.8	40.8	40.8	80	35.1	0	1	248	0.00	30.095 
18:55	40.6	40.6	40.6	80	34.9	1	4	248	0.00	30.095 
19:00	40.6	40.6	40.6	81	35.2	0	2	248	0.00	30.101 
19:05	40.5	40.5	40.5	81	35.1	0	3	248	0.00	30.101 
19:10	40.3	40.3	40.3	81	34.9	0	1	248	0.00	30.101 
19:15	40.2	40.2	40.2	81	34.8	0	3	248	0.00	30.104 
19:20	40.1	40.1	40.1	82	35.1	0	3	248	0.00	30.104 
19:25	40.1	40.1	40.1	82	35.1	0	4	225	0.00	30.104 
19:30	39.9	39.9	39.9	83	35.2	0	2	225	0.00	30.104 
19:35	39.8	39.8	39.8	83	35.1	0	2	225	0.00	30.104 
19:40	39.6	39.6	39.6	83	34.9	0	2	225	0.00	30.104 
19:45	39.6	39.6	39.6	83	34.9	0	2	225	0.00	30.110 
19:50	39.5	39.5	39.5	84	35.1	0	1	225	0.00	30.110 
19:55	39.5	39.5	39.5	84	35.1	0	3	225	0.00	30.110 
20:00	39.3	39.3	39.3	84	34.9	0	1	225	0.00	30.116 
20:05	39.2	39.2	39.2	84	34.8	0	1	225	0.00	30.116 
20:10	39.2	39.2	39.2	85	35.1	0	2	225	0.00	30.116 
20:15	39.1	39.1	39.1	85	35.0	0	1	225	0.00	30.112 
20:20	39.1	39.1	39.1	86	35.3	0	2	225	0.00	30.112 
20:25	39.1	39.1	39.1	86	35.3	0	2	225	0.00	30.112 
20:30	38.9	38.9	38.9	86	35.1	0	1	225	0.00	30.114 
20:35	38.8	38.8	38.8	86	35.0	0	1	225	0.00	30.114 
20:40	38.5	38.5	38.5	86	34.7	0	0	---	0.00	30.114 
20:45	38.5	38.5	38.5	86	34.7	0	1	225	0.00	30.118 
20:50	38.5	38.5	38.5	87	35.0	0	1	225	0.00	30.118 
20:55	38.5	38.5	38.5	87	35.0	0	1	225	0.00	30.118 
21:00	38.5	38.5	38.5	87	35.0	0	1	225	0.00	30.123 
21:05	38.3	38.3	38.3	88	35.1	0	2	225	0.00	30.123 
21:10	38.3	38.3	38.3	88	35.1	0	2	225	0.00	30.123 
21:15	38.3	38.3	38.3	88	35.1	0	2	225	0.00	30.120 
21:20	38.3	38.3	38.3	88	35.1	0	1	225	0.00	30.120 
21:25	38.2	38.2	38.2	88	35.0	0	1	225	0.00	30.120 
21:30	38.3	38.3	38.3	88	35.1	0	2	225	0.00	30.121 
21:35	38.3	38.3	38.3	88	35.1	0	1	225	0.00	30.121 
21:40	38.2	38.2	38.2	88	35.0	0	1	225	0.00	30.121 
21:45	38.2	38.2	38.2	88	35.0	0	3	225	0.00	30.123 
21:50	38.3	38.3	38.3	89	35.3	0	3	225	0.00	30.123 
21:55	38.2	38.2	38.2	88	35.0	0	4	225	0.00	30.123 
22:00	38.2	38.2	38.2	89	35.2	0	3	225	0.00	30.123 
22:05	38.2	38.2	38.2	88	35.0	0	2	225	0.00	30.123 
22:10	38.0	38.0	38.0	89	35.1	0	2	225	0.00	30.123 
22:15	37.9	37.9	37.9	89	35.0	0	2	225	0.00	30.119 
22:20	37.9	37.9	37.9	89	35.0	1	3	225	0.00	30.119 
22:25	38.0	38.0	38.0	89	35.1	1	3	225	0.00	30.119 
22:30	38.2	38.2	38.2	89	35.2	1	3	225	0.00	30.119 
22:35	38.3	38.3	38.3	89	35.3	1	3	248	0.00	30.119 
22:40	38.3	38.3	38.3	89	35.3	1	3	248	0.00	30.119 
22:45	38.5	38.5	38.5	90	35.8	1	3	248	0.00	30.119 
22:50	38.8	38.8	38.8	90	36.1	1	3	248	0.00	30.119 
22:55	38.8	38.8	38.8	89	35.8	1	4	248	0.00	30.119 
23:00	38.9	38.9	38.9	89	35.9	1	5	270	0.00	30.118 
23:05	38.9	38.9	38.9	89	35.9	1	4	225	0.00	30.118 
23:10	38.9	38.9	38.9	89	35.9	1	4	248	0.00	30.118 
23:15	39.1	39.1	39.1	89	36.1	1	4	248	0.00	30.116 
23:20	38.9	38.9	38.9	89	35.9	1	3	248	0.00	30.116 
23:25	38.8	38.8	38.8	89	35.8	1	3	248	0.00	30.116 
23:30	38.8	38.8	38.8	89	35.8	1	4	248	0.00	30.111 
23:35	38.8	38.8	38.8	89	35.8	1	3	248	0.00	30.111 
23:40	38.8	38.8	38.8	89	35.8	1	4	248	0.00	30.111 
23:45	38.8	38.8	38.8	89	35.8	1	3	248	0.00	30.120 
23:50	38.6	38.6	38.6	89	35.6	0	2	248	0.00	30.120 
23:55	38.6	38.6	38.6	89	35.6	1	4	248	0.00	30.120 

CoCoRaHS
IN-AL-39
A2 Web Hosting
Creative Commons License
GoDaddy
search engine by freefind advanced

loaded 2018-11-20 02:27:26 • last modified 2010-11-18 10:43:29
Privacy PolicyDisclaimer
• wx.awcolley.com is powered by PmWiki v.2002016 •
• all content (unless otherwise noted) © 2018 A W Colley